Time;durP1;ratioP1;P1;durP2;ratioP2;P2;SDS_P1;SDS_P2;PMS_P1;PMS_P2;Temp;Humidity;BMP_temperature;BMP_pressure;BME280_temperature;BME280_humidity;BME280_pressure;Samples;Min_cycle;Max_cycle;Signal;HPM_P1;HPM_P2
2023/01/09 10:05:46;;;;;;;1.77;1.27;;;;;;;7.62;100.00;97522.47;5119799;27;20566;-85
2023/01/09 10:08:24;;;;;;;6.07;1.50;;;;;;;8.26;100.00;97558.19;5084002;28;39838;-86
2023/01/09 10:10:55;;;;;;;6.00;1.30;;;;;;;9.10;100.00;97551.84;5071575;28;40642;-85
2023/01/09 10:16:25;;;;;;;4.13;1.10;;;;;;;10.21;89.82;97534.19;5069819;28;40874;-85
2023/01/09 10:19:06;;;;;;;3.47;1.20;;;;;;;10.39;87.12;97546.72;5066447;28;40534;-84
2023/01/09 10:21:44;;;;;;;3.63;1.33;;;;;;;10.36;84.40;97547.00;5070775;28;41917;-84
2023/01/09 10:24:28;;;;;;;4.00;1.37;;;;;;;10.36;84.75;97541.69;5070436;28;42956;-85
2023/01/09 10:26:58;;;;;;;3.83;1.60;;;;;;;10.18;81.88;97559.06;5071529;28;40801;-80
2023/01/09 10:29:36;;;;;;;3.20;1.87;;;;;;;10.19;82.79;97550.16;5069022;28;40095;-81
2023/01/09 10:32:23;;;;;;;3.83;2.10;;;;;;;10.02;83.11;97526.84;5087721;28;40537;-81
2023/01/09 10:35:03;;;;;;;3.77;1.37;;;;;;;10.10;82.38;97540.31;5082912;28;42580;-81
2023/01/09 10:37:37;;;;;;;3.50;1.40;;;;;;;10.04;82.28;97519.63;5083423;28;42393;-81
2023/01/09 10:40:14;;;;;;;4.07;1.87;;;;;;;10.17;81.82;97532.69;5086415;28;39003;-86
2023/01/09 10:42:47;;;;;;;3.07;1.10;;;;;;;10.24;80.89;97521.53;5069180;28;43011;-86
2023/01/09 10:45:20;;;;;;;2.63;1.20;;;;;;;10.38;81.06;97497.44;5068226;28;43983;-84
2023/01/09 10:47:49;;;;;;;5.30;1.20;;;;;;;10.61;81.12;97505.25;5083735;28;42401;-82
2023/01/09 10:50:22;;;;;;;2.37;0.80;;;;;;;10.55;79.03;97503.09;5085766;28;40290;-82
2023/01/09 10:52:54;;;;;;;3.43;0.90;;;;;;;10.50;77.35;97510.59;5086230;28;41477;-82
2023/01/09 10:55:32;;;;;;;3.13;0.83;;;;;;;10.64;78.08;97526.16;5085963;28;41731;-80
2023/01/09 10:58:04;;;;;;;4.33;1.33;;;;;;;10.69;77.56;97521.31;5082684;28;43349;-82
2023/01/09 11:00:32;;;;;;;2.50;1.80;;;;;;;10.84;76.82;97527.97;5085448;28;39164;-81
2023/01/09 11:02:59;;;;;;;1.70;0.83;;;;;;;11.04;75.22;97526.25;5086300;28;41461;-80
2023/01/09 11:05:29;;;;;;;2.00;1.00;;;;;;;11.32;74.39;97553.88;5067742;28;42949;-81
2023/01/09 11:08:04;;;;;;;3.70;0.90;;;;;;;11.27;73.53;97542.84;5082983;28;43336;-80
2023/01/09 11:10:46;;;;;;;2.80;1.10;;;;;;;11.14;71.88;97541.25;5085762;28;39116;-82
2023/01/09 11:13:18;;;;;;;3.47;0.87;;;;;;;10.99;72.73;97539.94;5068612;28;40282;-79
2023/01/09 11:15:46;;;;;;;3.73;1.00;;;;;;;10.89;73.09;97528.41;5062958;28;41951;-81
2023/01/09 11:18:19;;;;;;;2.07;0.83;;;;;;;10.95;74.48;97546.44;5072246;28;42792;-83
2023/01/09 11:20:47;;;;;;;4.57;1.00;;;;;;;10.87;74.77;97535.66;5072332;28;38840;-81
2023/01/09 11:23:33;;;;;;;1.90;0.80;;;;;;;10.82;74.72;97543.16;5072115;28;41895;-80
2023/01/09 11:26:03;;;;;;;1.33;0.90;;;;;;;10.79;74.70;97527.50;5067344;28;43823;-80
2023/01/09 11:28:30;;;;;;;2.17;0.77;;;;;;;10.93;73.59;97540.44;5054561;28;40711;-81
2023/01/09 11:31:00;;;;;;;3.30;1.10;;;;;;;10.91;72.66;97534.41;5052230;28;39913;-82
2023/01/09 11:33:29;;;;;;;3.53;1.10;;;;;;;11.01;71.59;97547.72;5051741;28;41099;-81
2023/01/09 11:36:07;;;;;;;3.60;1.27;;;;;;;11.07;72.32;97550.69;5054585;28;42901;-81
2023/01/09 11:38:49;;;;;;;1.07;0.80;;;;;;;11.22;72.97;97550.34;5052418;28;40923;-81
2023/01/09 11:41:19;;;;;;;1.80;1.03;;;;;;;11.32;72.08;97545.94;5069010;28;40932;-80
2023/01/09 11:43:49;;;;;;;1.83;1.03;;;;;;;11.53;70.18;97559.97;5071277;28;41107;-80
2023/01/09 11:46:36;;;;;;;1.30;0.50;;;;;;;12.10;68.17;97553.22;5054699;28;42131;-81
2023/01/09 11:49:06;;;;;;;1.63;0.60;;;;;;;12.91;66.45;97543.97;5066195;28;42238;-82
2023/01/09 11:51:35;;;;;;;2.00;0.60;;;;;;;13.24;62.98;97556.78;5071313;28;39797;-85
2023/01/09 11:54:16;;;;;;;1.07;0.77;;;;;;;13.40;63.11;97571.31;5055017;28;40726;-83
2023/01/09 11:56:45;;;;;;;2.33;0.57;;;;;;;13.78;61.23;97571.16;5053010;28;41829;-83
2023/01/09 11:59:14;;;;;;;3.17;0.80;;;;;;;14.88;58.27;97592.34;5054467;28;40951;-82
2023/01/09 12:01:59;;;;;;;1.37;0.67;;;;;;;14.73;55.41;97611.53;5055781;28;39900;-80
2023/01/09 12:04:32;;;;;;;0.83;0.60;;;;;;;14.78;55.25;97591.59;5053777;28;40962;-82
2023/01/09 12:07:21;;;;;;;0.50;0.40;;;;;;;14.67;56.32;97590.00;5055605;28;41883;-82
2023/01/09 12:10:00;;;;;;;2.73;0.67;;;;;;;14.32;57.17;97599.59;5054261;28;42281;-79
2023/01/09 12:12:35;;;;;;;1.80;0.73;;;;;;;13.87;57.58;97593.38;5053175;28;38748;-81
2023/01/09 12:15:23;;;;;;;1.30;0.50;;;;;;;13.47;59.26;97591.03;5051941;28;41739;-80
2023/01/09 12:18:08;;;;;;;1.73;0.80;;;;;;;13.14;59.82;97595.00;5053679;28;41653;-82
2023/01/09 12:20:56;;;;;;;3.63;0.80;;;;;;;12.91;60.68;97581.19;5064194;28;42383;-81
2023/01/09 12:23:37;;;;;;;1.63;0.83;;;;;;;12.85;60.82;97589.72;5071326;28;40894;-79
2023/01/09 12:26:18;;;;;;;0.70;0.67;;;;;;;12.56;60.06;97587.91;5052446;28;40617;-82
2023/01/09 12:29:07;;;;;;;1.23;0.70;;;;;;;12.59;61.57;97573.50;5067509;28;42752;-81
2023/01/09 12:31:49;;;;;;;1.80;0.90;;;;;;;12.55;61.30;97580.91;5067304;28;41813;-83
2023/01/09 12:34:29;;;;;;;1.17;0.60;;;;;;;12.67;61.52;97584.28;5068589;28;39134;-83
2023/01/09 12:37:14;;;;;;;1.33;0.50;;;;;;;12.67;60.55;97580.78;5073671;28;42003;-81
2023/01/09 12:39:55;;;;;;;1.93;0.70;;;;;;;12.70;60.50;97583.16;5061914;28;42311;-81
2023/01/09 12:42:47;;;;;;;2.67;0.97;;;;;;;12.50;60.17;97609.69;5060533;28;41660;-81
2023/01/09 12:45:38;;;;;;;0.73;0.70;;;;;;;12.22;58.78;97605.19;5077915;28;40211;-80
2023/01/09 12:48:21;;;;;;;1.03;0.93;;;;;;;12.10;60.80;97600.97;5065732;28;41009;-79
2023/01/09 12:51:05;;;;;;;1.07;0.50;;;;;;;12.09;60.44;97604.59;5064364;28;42028;-81
2023/01/09 12:53:39;;;;;;;1.40;0.70;;;;;;;12.01;61.10;97601.75;5054700;28;41010;-84
2023/01/09 12:56:11;;;;;;;2.77;1.10;;;;;;;11.80;61.52;97589.44;5054950;28;38832;-85
2023/01/09 12:58:45;;;;;;;0.90;0.70;;;;;;;11.74;61.68;97584.66;5050056;28;41372;-85
2023/01/09 13:01:16;;;;;;;0.73;0.60;;;;;;;11.62;62.73;97576.91;5066912;28;42533;-83
2023/01/09 13:03:51;;;;;;;2.10;0.80;;;;;;;11.48;62.95;97570.16;5070091;28;40946;-87
2023/01/09 13:06:23;;;;;;;1.50;0.73;;;;;;;11.48;63.21;97588.72;5055536;28;39941;-86
2023/01/09 13:09:07;;;;;;;0.80;0.60;;;;;;;11.32;63.66;97567.13;5053969;28;40964;-85
2023/01/09 13:11:40;;;;;;;1.83;0.77;;;;;;;11.33;64.04;97579.41;5055345;28;42843;-89
2023/01/09 13:14:19;;;;;;;2.17;0.50;;;;;;;11.37;64.38;97592.28;5053940;28;42485;-82
2023/01/09 13:16:50;;;;;;;0.67;0.60;;;;;;;11.07;63.62;97561.28;5052208;28;39931;-83
2023/01/09 13:19:23;;;;;;;1.00;0.60;;;;;;;11.21;63.10;97606.97;5053614;28;42777;-85
2023/01/09 13:21:54;;;;;;;1.03;0.50;;;;;;;10.93;63.82;97534.28;5055364;28;42837;-81
2023/01/09 13:24:29;;;;;;;1.40;0.60;;;;;;;11.32;63.30;97588.34;5070210;28;41892;-82
2023/01/09 13:27:01;;;;;;;1.27;0.70;;;;;;;11.08;62.88;97575.38;5052594;28;39061;-83
2023/01/09 13:29:35;;;;;;;0.70;0.53;;;;;;;11.13;63.26;97584.59;5053280;28;41074;-84
2023/01/09 13:32:24;;;;;;;2.17;0.93;;;;;;;11.05;62.99;97580.94;5068412;28;43687;-84
2023/01/09 13:34:56;;;;;;;1.50;0.60;;;;;;;11.16;63.64;97605.53;5049986;28;44186;-83
2023/01/09 13:37:32;;;;;;;0.57;0.50;;;;;;;11.10;63.57;97582.22;5066901;28;39795;-84
2023/01/09 13:40:02;;;;;;;1.77;0.57;;;;;;;11.12;63.44;97592.72;5054081;28;40638;-85
2023/01/09 13:42:37;;;;;;;1.33;0.60;;;;;;;11.09;63.69;97604.41;5053431;28;41871;-86
2023/01/09 13:45:25;;;;;;;0.50;0.50;;;;;;;11.10;64.52;97599.94;5054418;28;42523;-85
2023/01/09 13:48:35;;;;;;;1.13;0.50;;;;;;;11.09;63.53;97611.50;5070579;28;38840;-83
2023/01/09 13:51:55;;;;;;;1.33;0.57;;;;;;;11.03;64.32;97620.78;4999935;28;40805;-84
2023/01/09 13:55:00;;;;;;;0.87;0.60;;;;;;;10.99;64.90;97619.38;5050239;28;42024;-86
2023/01/09 13:57:30;;;;;;;1.20;0.57;;;;;;;10.88;64.82;97611.47;5052624;28;41398;-88
2023/01/09 14:00:31;;;;;;;2.43;0.70;;;;;;;11.02;65.19;97628.84;5053613;28;39303;-86
2023/01/09 14:03:17;;;;;;;1.10;0.60;;;;;;;10.99;66.13;97622.03;5025722;28;41523;-88
2023/01/09 14:06:16;;;;;;;0.40;0.40;;;;;;;11.00;65.37;97628.97;5054544;28;41538;-87
2023/01/09 14:08:47;;;;;;;1.33;1.10;;;;;;;11.15;64.36;97625.06;5052762;28;43423;-86
2023/01/09 14:11:26;;;;;;;0.87;0.70;;;;;;;11.48;64.59;97645.22;5054660;28;39417;-85
2023/01/09 14:14:05;;;;;;;0.63;0.57;;;;;;;11.59;63.46;97649.59;5053374;28;41364;-85
2023/01/09 14:16:35;;;;;;;1.47;0.53;;;;;;;11.56;63.66;97628.66;5052456;28;41610;-91
2023/01/09 14:19:16;;;;;;;0.43;0.43;;;;;;;11.81;63.42;97654.75;5052105;28;41096;-88
2023/01/09 14:21:52;;;;;;;0.63;0.60;;;;;;;11.75;63.06;97643.78;5054739;28;38749;-85
2023/01/09 14:24:25;;;;;;;0.70;0.50;;;;;;;11.46;63.66;97607.41;5053169;28;41787;-88
2023/01/09 14:26:55;;;;;;;1.23;0.50;;;;;;;11.45;63.26;97642.00;5048470;28;42813;-85
2023/01/09 14:29:40;;;;;;;0.87;0.80;;;;;;;11.36;63.30;97648.91;5053234;28;41219;-86
2023/01/09 14:32:45;;;;;;;0.80;0.60;;;;;;;11.36;63.54;97658.69;5050910;28;40220;-88
2023/01/09 14:35:25;;;;;;;0.60;0.60;;;;;;;11.21;64.30;97662.63;5068377;28;43439;-87
2023/01/09 14:38:16;;;;;;;1.47;0.57;;;;;;;10.62;64.70;97607.53;5051954;28;43455;-89
2023/01/09 14:40:50;;;;;;;1.20;0.70;;;;;;;10.77;65.67;97656.53;5047465;28;42251;-87
2023/01/09 14:43:26;;;;;;;1.20;0.53;;;;;;;10.75;66.01;97669.09;5069908;28;40027;-90
2023/01/09 14:46:02;;;;;;;1.60;0.50;;;;;;;10.63;66.50;97664.81;5048971;28;41150;-84
2023/01/09 14:48:32;;;;;;;1.57;0.60;;;;;;;10.49;67.10;97667.72;5049844;28;41648;-85
2023/01/09 14:51:07;;;;;;;1.23;0.80;;;;;;;10.48;67.62;97668.69;5053860;28;41806;-88
2023/01/09 14:53:38;;;;;;;0.70;0.70;;;;;;;10.38;67.55;97661.50;5056865;28;39171;-87
2023/01/09 14:56:07;;;;;;;0.63;0.57;;;;;;;10.38;68.54;97682.69;5055061;28;41947;-88
2023/01/09 14:58:36;;;;;;;1.53;0.80;;;;;;;10.09;68.23;97636.50;5056143;28;41532;-89
2023/01/09 15:01:06;;;;;;;0.70;0.70;;;;;;;10.15;68.81;97662.44;5055382;28;41671;-82
2023/01/09 15:03:38;;;;;;;1.23;0.90;;;;;;;9.99;69.65;97651.44;5055450;28;38898;-85
2023/01/09 15:06:14;;;;;;;3.00;1.30;;;;;;;9.99;69.73;97664.66;5072646;28;41974;-87
2023/01/09 15:08:45;;;;;;;1.93;1.20;;;;;;;10.02;69.87;97683.75;5055941;28;42101;-86
2023/01/09 15:11:13;;;;;;;0.70;0.70;;;;;;;9.80;70.50;97659.94;5055320;28;42777;-85
2023/01/09 15:23:09;;;;;;;1.20;0.73;;;;;;;9.42;72.99;97707.00;4952195;28;43549;-85
2023/01/09 15:25:39;;;;;;;1.07;0.90;;;;;;;9.41;73.51;97706.16;4935733;28;42687;-85
2023/01/09 15:28:30;;;;;;;1.30;0.83;;;;;;;9.33;73.94;97690.06;4991740;28;40340;-85
2023/01/09 15:31:05;;;;;;;1.30;1.00;;;;;;;9.37;74.16;97707.38;5054705;28;43631;-89
2023/01/09 15:33:34;;;;;;;1.73;1.23;;;;;;;9.38;74.10;97710.84;5055987;28;42934;-88
2023/01/09 15:36:06;;;;;;;1.60;1.17;;;;;;;9.31;74.02;97710.47;5051056;28;41992;-87
2023/01/09 15:38:35;;;;;;;3.03;1.80;;;;;;;9.32;74.00;97714.78;5056568;28;40612;-87
2023/01/09 15:41:09;;;;;;;4.53;2.80;;;;;;;9.44;74.21;97740.28;5050508;28;40904;-88
2023/01/09 15:43:41;;;;;;;2.23;1.63;;;;;;;9.21;73.95;97709.47;5052509;28;41960;-88
2023/01/09 15:46:10;;;;;;;2.10;1.20;;;;;;;9.33;74.04;97734.97;5056413;28;41153;-91
2023/01/09 15:48:38;;;;;;;1.63;1.20;;;;;;;9.37;74.27;97741.72;5055130;28;39089;-89
2023/01/09 15:51:10;;;;;;;2.03;1.30;;;;;;;9.27;74.53;97724.88;5050900;28;41953;-86
2023/01/09 15:53:41;;;;;;;1.20;0.90;;;;;;;9.27;74.19;97736.25;5052311;28;43236;-87
2023/01/09 15:56:18;;;;;;;0.83;0.83;;;;;;;9.37;74.25;97757.56;5067539;28;41088;-85
2023/01/09 15:58:47;;;;;;;1.97;0.80;;;;;;;9.31;73.85;97758.84;5052960;28;40287;-84
2023/01/09 16:01:24;;;;;;;2.33;1.10;;;;;;;9.23;74.22;97755.13;5070811;28;42024;-88
2023/01/09 16:03:54;;;;;;;1.00;0.50;;;;;;;9.26;74.10;97765.47;5055100;28;41693;-86
2023/01/09 16:06:25;;;;;;;2.10;0.77;;;;;;;9.16;73.86;97753.88;5056025;28;42142;-85
2023/01/09 16:08:55;;;;;;;1.47;0.53;;;;;;;9.05;73.52;97754.66;5054767;28;39258;-85
2023/01/09 16:11:28;;;;;;;1.17;0.77;;;;;;;9.22;74.00;97782.47;5056422;28;40686;-87
2023/01/09 16:13:58;;;;;;;1.20;1.10;;;;;;;9.06;73.73;97774.84;5054785;28;42903;-86
2023/01/09 16:16:29;;;;;;;1.80;0.80;;;;;;;9.18;73.92;97788.94;5071603;28;40842;-87
2023/01/09 16:18:59;;;;;;;1.50;0.80;;;;;;;9.01;73.61;97771.72;5054869;28;39967;-89
2023/01/09 16:21:33;;;;;;;1.10;0.80;;;;;;;9.03;73.70;97777.69;5055841;28;40584;-89
2023/01/09 16:24:04;;;;;;;1.63;1.10;;;;;;;9.08;73.87;97782.66;5054558;28;43491;-91
2023/01/09 16:26:34;;;;;;;1.00;0.90;;;;;;;9.16;73.73;97799.59;5053990;28;41240;-87
2023/01/09 16:29:27;;;;;;;1.37;1.07;;;;;;;9.18;73.60;97804.78;5054972;28;39168;-88
2023/01/09 16:32:00;;;;;;;1.47;1.10;;;;;;;9.03;73.36;97790.91;5053436;28;40857;-87
2023/01/09 16:34:27;;;;;;;1.97;1.10;;;;;;;8.91;73.44;97776.78;5056582;28;41617;-91
2023/01/09 16:36:55;;;;;;;0.93;0.80;;;;;;;8.90;73.88;97772.47;5055058;28;40885;-90
2023/01/09 16:39:24;;;;;;;1.63;1.20;;;;;;;9.04;74.11;97803.16;5054834;28;40327;-91
2023/01/09 16:44:42;;;;;;;1.67;1.00;;;;;;;9.01;74.83;97795.47;5054749;28;41730;-87
2023/01/09 16:47:11;;;;;;;1.10;1.00;;;;;;;8.86;75.84;97789.50;5053076;28;42158;-88
2023/01/09 16:49:38;;;;;;;2.90;1.10;;;;;;;8.88;75.79;97799.97;5071870;28;39151;-89
2023/01/09 16:52:15;;;;;;;1.63;0.93;;;;;;;8.88;76.12;97792.03;5053481;28;41672;-87
2023/01/09 16:54:45;;;;;;;1.43;1.00;;;;;;;8.80;76.50;97789.94;5050366;28;41993;-87
2023/01/09 16:57:18;;;;;;;1.70;1.17;;;;;;;8.83;77.62;97802.91;5052810;28;41119;-89
2023/01/09 16:59:46;;;;;;;3.23;1.50;;;;;;;8.68;77.93;97790.81;5051240;28;39924;-90
2023/01/09 17:02:17;;;;;;;1.77;1.10;;;;;;;8.72;78.49;97802.84;5086060;28;40621;-83
2023/01/09 17:04:46;;;;;;;1.87;1.20;;;;;;;8.59;79.23;97786.22;5067524;28;41680;-85
2023/01/09 17:07:15;;;;;;;2.10;1.23;;;;;;;8.41;79.84;97779.59;5052374;28;41256;-88
2023/01/09 17:09:44;;;;;;;1.37;0.90;;;;;;;8.44;80.70;97813.69;5053790;28;38791;-87
2023/01/09 17:12:18;;;;;;;1.80;0.97;;;;;;;8.42;81.21;97820.84;5055312;28;41078;-89
2023/01/09 17:14:46;;;;;;;2.60;1.00;;;;;;;8.34;82.26;97817.91;5063507;28;43756;-87
2023/01/09 17:17:14;;;;;;;2.50;1.27;;;;;;;8.33;82.05;97821.50;5052728;28;41245;-86
2023/01/09 17:19:42;;;;;;;1.90;1.30;;;;;;;8.32;82.69;97825.09;5054628;28;38768;-85
